createdAt,value
2023-03-25T00:00:59.171Z,21.40
2023-03-25T00:03:28.764Z,22.80
2023-03-25T00:05:57.952Z,30.30
2023-03-25T00:08:27.407Z,25.98
2023-03-25T00:10:57.965Z,23.77
2023-03-25T00:13:26.585Z,23.77
2023-03-25T00:15:58.588Z,21.10
2023-03-25T00:18:33.840Z,24.40
2023-03-25T00:21:04.114Z,29.63
2023-03-25T00:23:33.161Z,33.83
2023-03-25T00:26:01.337Z,20.30
2023-03-25T00:28:32.673Z,20.83
2023-03-25T00:31:05.875Z,20.48
2023-03-25T00:33:35.500Z,19.45
2023-03-25T00:36:04.912Z,18.45
2023-03-25T00:38:35.615Z,30.35
2023-03-25T00:41:26.027Z,43.55
2023-03-25T00:44:01.477Z,34.75
2023-03-25T00:46:32.079Z,46.85
2023-03-25T00:49:01.448Z,32.55
2023-03-25T00:51:31.643Z,30.27
2023-03-25T00:54:01.038Z,32.50
2023-03-25T00:56:30.621Z,23.55
2023-03-25T00:58:59.374Z,23.58
2023-03-25T01:01:28.760Z,29.15
2023-03-25T01:04:00.161Z,22.20
2023-03-25T01:06:36.090Z,26.23
2023-03-25T01:11:35.364Z,38.45
2023-03-25T01:14:06.149Z,32.42
2023-03-25T01:16:34.685Z,25.38
2023-03-25T01:19:03.403Z,27.42
2023-03-25T01:21:35.371Z,25.60
2023-03-25T01:24:05.581Z,22.23
2023-03-25T01:26:34.093Z,24.70
2023-03-25T01:29:02.616Z,23.23
2023-03-25T01:31:32.506Z,18.02
2023-03-25T01:34:01.384Z,16.30
2023-03-25T01:36:29.915Z,20.42
2023-03-25T01:38:59.810Z,18.27
2023-03-25T01:41:35.747Z,18.50
2023-03-25T01:44:20.061Z,16.05
2023-03-25T01:46:49.860Z,15.23
2023-03-25T01:49:30.298Z,16.42
2023-03-25T01:52:03.392Z,18.15
2023-03-25T01:54:32.817Z,22.35
2023-03-25T01:57:01.270Z,18.70
2023-03-25T01:59:30.536Z,18.55
2023-03-25T02:02:02.778Z,18.67
2023-03-25T02:04:44.225Z,20.60
2023-03-25T02:07:16.754Z,21.95
2023-03-25T02:09:45.266Z,16.08
2023-03-25T02:12:13.692Z,16.00
2023-03-25T02:14:42.646Z,17.70
2023-03-25T02:17:52.219Z,18.50
2023-03-25T02:20:37.274Z,14.38
2023-03-25T02:23:17.204Z,17.80
2023-03-25T02:26:42.506Z,16.02
2023-03-25T02:29:29.354Z,18.33
2023-03-25T02:32:11.095Z,20.88
2023-03-25T02:34:57.242Z,17.75
2023-03-25T02:40:26.845Z,16.75
2023-03-25T02:42:58.019Z,17.30
2023-03-25T02:45:34.261Z,16.88
2023-03-25T02:48:15.060Z,15.48
2023-03-25T02:50:53.417Z,17.10
2023-03-25T02:53:28.961Z,20.10
2023-03-25T02:56:02.145Z,15.98
2023-03-25T02:58:31.635Z,15.15
2023-03-25T03:01:00.129Z,18.95
2023-03-25T03:03:29.106Z,14.82
2023-03-25T03:06:02.698Z,15.43
2023-03-25T03:08:53.627Z,17.77
2023-03-25T03:11:56.584Z,18.60
2023-03-25T03:14:53.886Z,27.52
2023-03-25T03:17:44.927Z,19.08
2023-03-25T03:20:32.698Z,15.45
2023-03-25T03:23:25.148Z,18.10
2023-03-25T03:26:01.000Z,16.65
2023-03-25T03:28:40.857Z,17.92
2023-03-25T03:31:48.317Z,19.83
2023-03-25T03:34:34.751Z,18.67
2023-03-25T03:37:05.874Z,18.85
2023-03-25T03:39:37.734Z,18.10
2023-03-25T03:42:20.743Z,17.23
2023-03-25T03:44:56.561Z,17.63
2023-03-25T03:47:29.933Z,20.73
2023-03-25T03:50:11.546Z,22.55
2023-03-25T03:52:57.473Z,24.83
2023-03-25T03:55:38.020Z,21.07
2023-03-25T03:58:11.132Z,20.80
2023-03-25T04:01:13.408Z,20.98
2023-03-25T04:03:56.101Z,20.95
2023-03-25T04:06:27.186Z,20.13
2023-03-25T04:09:00.596Z,19.48
2023-03-25T04:11:37.876Z,22.95
2023-03-25T04:14:07.772Z,23.48
2023-03-25T04:16:37.624Z,22.77
2023-03-25T04:19:06.833Z,23.60
2023-03-25T04:21:34.884Z,25.05
2023-03-25T04:24:04.746Z,22.13
2023-03-25T04:26:34.264Z,23.95
2023-03-25T04:29:02.999Z,25.98
2023-03-25T04:31:31.812Z,24.23
2023-03-25T04:34:02.410Z,26.33
2023-03-25T04:36:33.956Z,21.77
2023-03-25T04:39:02.468Z,22.73
2023-03-25T04:41:32.209Z,26.42
2023-03-25T04:44:00.923Z,23.15
2023-03-25T04:46:29.039Z,25.30
2023-03-25T04:48:58.003Z,23.73
2023-03-25T04:51:26.027Z,23.13
2023-03-25T04:53:54.598Z,25.52
2023-03-25T04:56:23.539Z,24.98
2023-03-25T04:58:53.436Z,25.67
2023-03-25T05:01:30.798Z,26.77
2023-03-25T05:04:07.496Z,27.60
2023-03-25T05:06:38.578Z,35.58
2023-03-25T05:09:09.247Z,37.78
2023-03-25T05:11:39.739Z,40.38
2023-03-25T05:14:09.265Z,37.05
2023-03-25T05:16:37.554Z,38.67
2023-03-25T05:19:06.739Z,34.63
2023-03-25T05:21:39.369Z,51.78
2023-03-25T05:24:10.527Z,67.10
2023-03-25T05:26:39.875Z,87.50
2023-03-25T05:29:16.432Z,74.70
2023-03-25T05:31:46.415Z,107.93
2023-03-25T05:34:17.395Z,133.45
2023-03-25T05:36:46.125Z,75.95
2023-03-25T05:39:15.512Z,73.70
2023-03-25T05:41:45.929Z,43.83
2023-03-25T05:44:15.099Z,57.83
2023-03-25T05:46:43.430Z,68.47
2023-03-25T05:49:12.076Z,57.35
2023-03-25T05:51:40.370Z,45.20
2023-03-25T05:54:11.995Z,41.30
2023-03-25T05:56:41.485Z,37.17
2023-03-25T05:59:10.541Z,41.65
2023-03-25T06:01:39.008Z,49.60
2023-03-25T06:04:10.496Z,34.35
2023-03-25T06:06:40.279Z,37.17
2023-03-25T06:09:09.842Z,31.20
2023-03-25T06:11:46.774Z,32.15
2023-03-25T06:14:15.379Z,38.15
2023-03-25T06:16:44.161Z,35.05
2023-03-25T06:19:12.713Z,33.47
2023-03-25T06:21:41.130Z,42.15
2023-03-25T06:24:09.627Z,34.97
2023-03-25T06:26:37.945Z,37.65
2023-03-25T06:29:08.631Z,56.30
2023-03-25T06:31:36.946Z,70.95
2023-03-25T06:34:05.762Z,87.70
2023-03-25T06:36:34.821Z,81.93
2023-03-25T06:39:05.386Z,65.82
2023-03-25T06:41:35.999Z,51.70
2023-03-25T06:44:16.947Z,60.75
2023-03-25T06:47:23.799Z,37.10
2023-03-25T06:49:55.301Z,85.43
2023-03-25T06:52:23.773Z,76.70
2023-03-25T06:54:52.274Z,29.90
2023-03-25T06:57:20.643Z,32.15
2023-03-25T06:59:49.765Z,45.17
2023-03-25T07:02:18.181Z,33.38
2023-03-25T07:04:46.809Z,41.42
2023-03-25T07:07:15.392Z,33.55
2023-03-25T07:09:43.839Z,26.25
2023-03-25T07:12:12.145Z,18.38
2023-03-25T07:14:40.745Z,22.15
2023-03-25T07:17:09.179Z,19.80
2023-03-25T07:19:37.749Z,18.10
2023-03-25T07:22:05.936Z,25.17
2023-03-25T07:24:34.490Z,23.17
2023-03-25T07:27:02.688Z,20.40
2023-03-25T07:29:32.773Z,16.48
2023-03-25T07:32:01.071Z,17.98
2023-03-25T07:34:29.584Z,20.92
2023-03-25T07:36:57.772Z,18.63
2023-03-25T07:39:26.356Z,18.70
2023-03-25T07:41:54.808Z,19.42
2023-03-25T07:44:58.880Z,15.05
2023-03-25T07:47:27.976Z,16.13
2023-03-25T07:49:56.598Z,47.65
2023-03-25T07:52:24.912Z,12.13
2023-03-25T07:54:53.606Z,15.73
2023-03-25T07:57:21.946Z,11.15
2023-03-25T07:59:51.064Z,12.18
2023-03-25T08:02:19.930Z,11.07
2023-03-25T08:04:48.729Z,8.77
2023-03-25T08:07:16.972Z,12.32
2023-03-25T08:09:45.586Z,9.57
2023-03-25T08:12:13.873Z,17.23
2023-03-25T08:14:42.558Z,8.25
2023-03-25T08:17:11.100Z,30.65
2023-03-25T08:19:39.844Z,17.42
2023-03-25T08:22:08.204Z,9.63
2023-03-25T08:24:36.840Z,10.98
2023-03-25T08:27:14.924Z,13.85
2023-03-25T08:29:45.437Z,9.95
2023-03-25T08:32:13.808Z,11.38
2023-03-25T08:34:42.467Z,12.50
2023-03-25T08:37:11.227Z,7.97
2023-03-25T08:39:42.123Z,10.85
2023-03-25T08:42:10.740Z,7.93
2023-03-25T08:44:39.526Z,8.93
2023-03-25T08:47:07.672Z,7.65
2023-03-25T08:49:36.334Z,9.98
2023-03-25T08:52:08.658Z,9.95
2023-03-25T08:54:37.389Z,7.88
2023-03-25T08:57:06.174Z,7.03
2023-03-25T08:59:34.913Z,9.68
2023-03-25T09:02:03.683Z,12.57
2023-03-25T09:04:33.441Z,15.52
2023-03-25T09:07:10.838Z,14.93
2023-03-25T09:09:41.432Z,12.30
2023-03-25T09:12:09.879Z,8.00
2023-03-25T09:14:38.469Z,8.68
2023-03-25T09:17:06.687Z,29.23
2023-03-25T09:19:38.104Z,11.00
2023-03-25T09:22:07.970Z,8.98
2023-03-25T09:24:37.684Z,9.90
2023-03-25T09:27:06.057Z,6.57
2023-03-25T09:29:34.641Z,9.95
2023-03-25T09:32:03.281Z,9.77
2023-03-25T09:34:32.436Z,8.98
2023-03-25T09:37:01.280Z,7.88
2023-03-25T09:39:30.132Z,14.10
2023-03-25T09:42:26.375Z,16.88
2023-03-25T09:47:55.355Z,11.50
2023-03-25T09:50:25.072Z,22.15
2023-03-25T09:53:21.352Z,22.70
2023-03-25T09:58:41.637Z,15.68
2023-03-25T10:01:28.752Z,11.45
2023-03-25T10:04:09.935Z,17.70
2023-03-25T10:06:57.967Z,10.25
2023-03-25T10:09:41.426Z,10.00
2023-03-25T10:12:39.257Z,9.80
2023-03-25T10:15:29.046Z,10.32
2023-03-25T10:18:05.148Z,11.73
2023-03-25T10:20:43.056Z,16.42
2023-03-25T10:23:27.126Z,11.43
2023-03-25T10:26:04.446Z,9.38
2023-03-25T10:28:39.773Z,16.33
2023-03-25T10:31:16.344Z,17.88
2023-03-25T10:33:51.908Z,13.13
2023-03-25T10:36:28.414Z,15.93
2023-03-25T10:38:57.216Z,46.47
2023-03-25T10:41:30.966Z,23.23
2023-03-25T10:43:59.814Z,27.42
2023-03-25T10:46:47.323Z,27.20
2023-03-25T10:49:24.374Z,60.70
2023-03-25T10:51:54.745Z,34.63
2023-03-25T10:54:28.073Z,12.65
2023-03-25T10:57:02.301Z,16.98
2023-03-25T10:59:36.037Z,13.45
2023-03-25T11:02:18.778Z,19.27
2023-03-25T11:04:51.198Z,29.98
2023-03-25T11:07:41.913Z,23.05
2023-03-25T11:10:10.577Z,12.18
2023-03-25T11:12:43.318Z,20.30
2023-03-25T11:15:18.508Z,26.15
2023-03-25T11:17:48.067Z,17.02
2023-03-25T11:20:28.670Z,13.10
2023-03-25T11:23:05.004Z,19.17
2023-03-25T11:25:40.001Z,15.13
2023-03-25T11:28:27.787Z,43.83
2023-03-25T11:31:19.485Z,77.47
2023-03-25T11:34:04.129Z,32.90
2023-03-25T11:36:35.935Z,15.18
2023-03-25T11:39:23.265Z,11.15
2023-03-25T11:41:52.816Z,12.50
2023-03-25T11:44:29.318Z,11.43
2023-03-25T11:47:02.389Z,14.40
2023-03-25T11:49:37.314Z,11.25
2023-03-25T11:52:18.995Z,13.65
2023-03-25T11:54:47.641Z,11.55
2023-03-25T11:57:27.076Z,13.80
2023-03-25T12:00:13.010Z,12.80
2023-03-25T12:02:42.268Z,12.23
2023-03-25T12:05:12.453Z,11.40
2023-03-25T12:07:42.900Z,7.85
2023-03-25T12:10:19.071Z,16.15
2023-03-25T12:13:14.099Z,12.82
2023-03-25T12:15:51.021Z,15.50
2023-03-25T12:18:57.202Z,22.27
2023-03-25T12:21:52.539Z,19.70
2023-03-25T12:24:33.526Z,20.70
2023-03-25T12:27:21.335Z,10.52
2023-03-25T12:30:09.900Z,11.57
2023-03-25T12:32:58.659Z,17.27
2023-03-25T12:36:03.924Z,26.70
2023-03-25T12:38:49.773Z,16.38
2023-03-25T12:43:51.561Z,19.48
2023-03-25T12:46:35.531Z,19.00
2023-03-25T12:49:34.044Z,12.75
2023-03-25T12:52:32.993Z,7.30
2023-03-25T12:55:16.240Z,10.55
2023-03-25T12:58:28.337Z,8.18
2023-03-25T13:00:56.797Z,7.03
2023-03-25T13:03:56.535Z,8.40
2023-03-25T13:06:42.467Z,11.90
2023-03-25T13:12:11.379Z,10.20
2023-03-25T13:14:47.172Z,10.80
2023-03-25T13:17:27.260Z,12.27
2023-03-25T13:20:01.100Z,12.02
2023-03-25T13:22:34.940Z,7.47
2023-03-25T13:25:08.534Z,10.00
2023-03-25T13:27:41.681Z,8.07
2023-03-25T13:30:28.845Z,6.45
2023-03-25T13:33:06.686Z,7.95
2023-03-25T13:35:52.644Z,7.65
2023-03-25T13:38:32.390Z,6.82
2023-03-25T13:41:09.742Z,12.10
2023-03-25T13:44:13.029Z,6.45
2023-03-25T13:46:44.208Z,10.05
2023-03-25T13:49:31.018Z,10.73
2023-03-25T13:51:59.920Z,9.15
2023-03-25T13:54:50.595Z,6.85
2023-03-25T13:57:48.425Z,13.77
2023-03-25T14:00:54.047Z,9.65
2023-03-25T14:03:53.003Z,8.10
2023-03-25T14:07:21.306Z,9.20
2023-03-25T14:10:08.763Z,13.60
2023-03-25T14:12:43.782Z,7.97
2023-03-25T14:15:19.639Z,21.20
2023-03-25T14:17:50.514Z,8.57
2023-03-25T14:20:34.184Z,22.02
2023-03-25T14:23:06.526Z,13.50
2023-03-25T14:25:53.377Z,11.85
2023-03-25T14:28:43.977Z,9.63
2023-03-25T14:31:12.874Z,12.25
2023-03-25T14:34:02.771Z,6.95
2023-03-25T14:36:40.367Z,9.40
2023-03-25T14:39:32.937Z,11.40
2023-03-25T14:42:08.196Z,8.95
2023-03-25T14:44:49.579Z,12.60
2023-03-25T14:47:22.390Z,17.35
2023-03-25T14:50:07.184Z,16.73
2023-03-25T14:52:46.119Z,27.25
2023-03-25T14:55:22.478Z,21.77
2023-03-25T14:57:52.446Z,32.17
2023-03-25T15:00:29.958Z,66.00
2023-03-25T15:03:05.643Z,18.35
2023-03-25T15:05:34.993Z,14.68
2023-03-25T15:08:06.978Z,20.42
2023-03-25T15:10:48.659Z,18.02
2023-03-25T15:13:33.443Z,25.52
2023-03-25T15:16:20.110Z,27.88
2023-03-25T15:18:49.664Z,11.40
2023-03-25T15:21:17.986Z,15.82
2023-03-25T15:23:52.752Z,17.95
2023-03-25T15:26:38.470Z,14.13
2023-03-25T15:29:41.883Z,10.32
2023-03-25T15:32:34.594Z,6.57
2023-03-25T15:35:20.093Z,12.55
2023-03-25T15:37:55.024Z,20.35
2023-03-25T15:40:57.943Z,18.52
2023-03-25T15:44:00.107Z,18.88
2023-03-25T15:47:02.019Z,15.23
2023-03-25T15:50:07.691Z,11.45
2023-03-25T15:53:00.134Z,11.40
2023-03-25T15:55:34.940Z,10.07
2023-03-25T15:58:07.686Z,13.00
2023-03-25T16:00:42.326Z,39.53
2023-03-25T16:03:22.644Z,35.78
2023-03-25T16:05:57.266Z,39.58
2023-03-25T16:08:29.158Z,45.73
2023-03-25T16:10:57.443Z,99.28
2023-03-25T16:13:26.088Z,183.73
2023-03-25T16:15:57.935Z,60.03
2023-03-25T16:18:26.882Z,66.50
2023-03-25T16:21:01.202Z,45.03
2023-03-25T16:23:30.848Z,52.55
2023-03-25T16:25:58.911Z,55.67
2023-03-25T16:28:34.922Z,55.38
2023-03-25T16:31:03.737Z,70.30
2023-03-25T16:33:41.355Z,63.33
2023-03-25T16:36:15.799Z,56.50
2023-03-25T16:38:47.966Z,38.35
2023-03-25T16:41:16.584Z,48.08
2023-03-25T16:43:45.509Z,39.88
2023-03-25T16:46:15.945Z,57.72
2023-03-25T16:48:53.892Z,52.58
2023-03-25T16:51:30.028Z,41.38
2023-03-25T16:54:01.552Z,29.52
2023-03-25T16:56:37.623Z,27.58
2023-03-25T16:59:20.587Z,21.33
2023-03-25T17:01:53.693Z,27.60
2023-03-25T17:04:26.233Z,35.03
2023-03-25T17:06:58.013Z,43.47
2023-03-25T17:09:34.375Z,29.98
2023-03-25T17:12:07.382Z,33.85
2023-03-25T17:14:43.082Z,20.70
2023-03-25T17:17:17.291Z,18.88
2023-03-25T17:19:49.686Z,18.00
2023-03-25T17:22:33.024Z,18.50
2023-03-25T17:25:34.906Z,18.70
2023-03-25T17:28:28.896Z,16.02
2023-03-25T17:30:57.747Z,13.30
2023-03-25T17:33:34.307Z,36.17
2023-03-25T17:36:03.742Z,27.13
2023-03-25T17:38:36.722Z,16.80
2023-03-25T17:41:08.223Z,15.43
2023-03-25T17:43:41.642Z,15.52
2023-03-25T17:46:10.635Z,17.02
2023-03-25T17:48:38.982Z,35.75
2023-03-25T17:51:07.611Z,26.40
2023-03-25T17:53:35.928Z,43.22
2023-03-25T17:56:06.072Z,98.05
2023-03-25T17:58:35.628Z,100.88
2023-03-25T18:01:04.351Z,123.20
2023-03-25T18:03:36.412Z,37.97
2023-03-25T18:06:05.604Z,42.00
2023-03-25T18:08:35.123Z,34.22
2023-03-25T18:11:03.744Z,40.47
2023-03-25T18:13:31.870Z,20.40
2023-03-25T18:16:00.492Z,25.40
2023-03-25T18:18:29.844Z,24.05
2023-03-25T18:21:03.757Z,29.73
2023-03-25T18:23:33.417Z,25.65
2023-03-25T18:26:05.070Z,27.80
2023-03-25T18:28:37.645Z,102.88
2023-03-25T18:31:06.326Z,45.53
2023-03-25T18:33:37.788Z,31.70
2023-03-25T18:36:09.532Z,33.80
2023-03-25T18:38:39.641Z,34.63
2023-03-25T18:41:12.086Z,23.85
2023-03-25T18:43:41.280Z,28.10
2023-03-25T18:46:14.310Z,24.90
2023-03-25T18:48:43.035Z,23.23
2023-03-25T18:51:13.579Z,26.67
2023-03-25T18:53:44.115Z,25.15
2023-03-25T18:59:04.534Z,27.08
2023-03-25T19:01:33.431Z,24.25
2023-03-25T19:04:02.661Z,19.20
2023-03-25T19:06:39.503Z,16.08
2023-03-25T19:09:09.724Z,13.68
2023-03-25T19:11:38.599Z,15.40
2023-03-25T19:14:06.795Z,16.55
2023-03-25T19:16:35.518Z,19.63
2023-03-25T19:19:03.773Z,22.48
2023-03-25T19:21:32.799Z,20.15
2023-03-25T19:24:02.067Z,21.33
2023-03-25T19:26:30.876Z,26.20
2023-03-25T19:28:59.083Z,29.40
2023-03-25T19:31:29.911Z,33.33
2023-03-25T19:33:59.244Z,39.55
2023-03-25T19:36:28.140Z,44.75
2023-03-25T19:39:05.617Z,34.80
2023-03-25T19:41:35.221Z,41.00
2023-03-25T19:44:04.027Z,16.80
2023-03-25T19:46:34.248Z,15.90
2023-03-25T19:49:02.581Z,23.50
2023-03-25T19:51:32.584Z,17.25
2023-03-25T19:54:01.063Z,14.13
2023-03-25T19:56:29.741Z,18.13
2023-03-25T19:58:57.945Z,24.13
2023-03-25T20:01:27.794Z,18.15
2023-03-25T20:03:56.548Z,21.88
2023-03-25T20:06:25.154Z,20.23
2023-03-25T20:08:53.372Z,23.45
2023-03-25T20:11:22.108Z,16.00
2023-03-25T20:13:50.935Z,15.93
2023-03-25T20:16:20.841Z,16.23
2023-03-25T20:18:50.141Z,14.27
2023-03-25T20:21:18.591Z,16.90
2023-03-25T20:23:46.970Z,12.93
2023-03-25T20:26:16.032Z,13.27
2023-03-25T20:28:46.380Z,17.00
2023-03-25T20:31:18.813Z,15.73
2023-03-25T20:33:51.245Z,13.45
2023-03-25T20:36:21.602Z,13.25
2023-03-25T20:38:57.178Z,13.68
2023-03-25T20:41:29.727Z,17.70
2023-03-25T20:43:58.110Z,21.33
2023-03-25T20:46:31.433Z,17.08
2023-03-25T20:49:01.926Z,22.30
2023-03-25T20:51:30.599Z,17.38
2023-03-25T20:53:58.845Z,17.42
2023-03-25T20:56:27.567Z,16.13
2023-03-25T20:58:55.984Z,15.00
2023-03-25T21:01:24.571Z,16.05
2023-03-25T21:03:53.426Z,17.60
2023-03-25T21:06:25.557Z,18.90
2023-03-25T21:08:56.489Z,16.00
2023-03-25T21:11:25.238Z,20.75
2023-03-25T21:13:53.726Z,23.25
2023-03-25T21:16:22.313Z,19.85
2023-03-25T21:18:51.303Z,21.15
2023-03-25T21:21:20.217Z,18.92
2023-03-25T21:23:49.301Z,18.48
2023-03-25T21:26:18.681Z,16.55
2023-03-25T21:28:48.651Z,17.80
2023-03-25T21:31:22.456Z,21.27
2023-03-25T21:33:52.894Z,23.48
2023-03-25T21:36:29.403Z,22.50
2023-03-25T21:41:27.976Z,22.80
2023-03-25T21:43:56.657Z,13.15
2023-03-25T21:46:27.372Z,24.90
2023-03-25T21:48:58.817Z,19.35
2023-03-25T21:51:44.278Z,16.38
2023-03-25T21:54:14.504Z,15.18
2023-03-25T21:56:43.479Z,14.20
2023-03-25T21:59:11.670Z,14.30
2023-03-25T22:01:42.738Z,11.45
2023-03-25T22:04:11.283Z,14.85
2023-03-25T22:06:39.890Z,12.60
2023-03-25T22:09:09.286Z,16.30
2023-03-25T22:11:37.958Z,9.90
2023-03-25T22:14:07.231Z,15.77
2023-03-25T22:16:36.619Z,11.75
2023-03-25T22:19:05.781Z,10.65
2023-03-25T22:21:37.443Z,16.08
2023-03-25T22:24:08.099Z,16.35
2023-03-25T22:26:39.724Z,18.58
2023-03-25T22:29:10.143Z,13.15
2023-03-25T22:31:43.091Z,18.17
2023-03-25T22:34:15.511Z,16.67
2023-03-25T22:36:50.519Z,11.70
2023-03-25T22:39:20.841Z,12.30
2023-03-25T22:41:49.701Z,11.43
2023-03-25T22:44:18.410Z,11.73
2023-03-25T22:46:48.268Z,13.02
2023-03-25T22:49:17.046Z,13.32
2023-03-25T22:51:46.051Z,10.35
2023-03-25T22:54:14.486Z,19.23
2023-03-25T22:56:43.817Z,12.75
2023-03-25T22:59:13.060Z,13.23
2023-03-25T23:01:42.174Z,17.05
2023-03-25T23:04:10.526Z,9.02
2023-03-25T23:06:39.154Z,14.73
2023-03-25T23:09:08.886Z,10.35
2023-03-25T23:11:37.947Z,15.52
2023-03-25T23:14:09.673Z,15.23
2023-03-25T23:16:39.189Z,11.98
2023-03-25T23:19:10.016Z,9.80
2023-03-25T23:21:38.933Z,9.68
2023-03-25T23:24:09.188Z,8.30
2023-03-25T23:26:41.160Z,10.93
2023-03-25T23:29:11.822Z,11.10
2023-03-25T23:31:43.371Z,8.57
2023-03-25T23:34:14.578Z,9.57
2023-03-25T23:36:43.582Z,17.60
2023-03-25T23:39:15.404Z,13.80
2023-03-25T23:41:44.457Z,14.52
2023-03-25T23:44:13.271Z,14.02
2023-03-25T23:46:43.089Z,10.77
2023-03-25T23:49:11.931Z,10.75
2023-03-25T23:51:41.621Z,11.23
2023-03-25T23:54:15.986Z,11.98
2023-03-25T23:56:44.856Z,12.55
2023-03-25T23:59:13.143Z,11.02
